Terminal Aerodrome Forecast
Issued by NWS Shreveport, LA

Home | Current Version | Previous Version | Text Only | Print | Product List | Glossary On
Versions: 1 2 3 4 5 6 7 8 9 10 11 12 13 14 15 16
458
FTUS44 KSHV 231724
TAFGGG
TAF
KGGG 231724Z 2318/2418 27008KT P6SM SKC
     FM240000 27006KT P6SM SKC
     FM240300 32007KT P6SM SKC
     FM241600 32017G25KT P6SM SKC=

USA.gov is the U.S. government's official web portal to all federal, state and local government web resources and services.